首页
METAR-TAF:

METAR-TAF

机场 :

安東尼奧·汪帕特國際機場

阿加尼亚, 關島, 美国

纬度: 13-29N, 经度: 144-48E, 海拔: 91米

当前天气观测

该预报发布于39分钟前的20:54 UTC
风速11节,风向东北
温度 28°C
湿度 94%
气压 1010 hPa
能見度: 16.1公里
少量云层高于1700英尺

METAR: PGUM 152054Z 05011KT 10SM FEW017 28/27 A2983 RMK AO2 SLP095 T02830267 53012

时间: 07:33 (21:33 UTC)

预报

该预报发布于4小时和4分钟前的17:29 UTC
预报有效从15日的 18点(UTC)到 16日的 24点(UTC)
风速10节,风向东北
能見度: 10公里
少量云层高于2000英尺
散云层高于4000英尺
附近有阵雨
从 16日的 0100点(UTC)
风速12节,风向东转东北,有时为20节阵风
能見度: 10公里
散云层高于1800英尺
散云层高于4000英尺
附近有阵雨
从 16日的 0800点(UTC)
风速11节,风向
能見度: 10公里
少量云层高于1800英尺
散云层高于4000英尺
散云层高于14000英尺
附近有阵雨

TAF: PGUM 151729Z 1518/1624 04010KT P6SM VCSH FEW020 SCT040 FM160100 07012G20KT P6SM VCSH SCT018 SCT040 FM160800 08011KT P6SM VCSH FEW018 SCT040 SCT140

超过4000个机场的气象观测和天气预报(METAR&TAF报告)。

可查询的气象台以黄色和红色小点在地图上表示。

将鼠标移到小点上方,可查看气象台名称。

然后点击查看天气观测和预报。

如需切换地图:点击带黑十字的绿色按钮放大地图;点击带横线的绿色按钮缩小地图;或者点击绿色箭头查看邻近地区的地图。


METAR-TAF: